sensor_id;sensor_type;location;lat;lon;timestamp;P1;durP1;ratioP1;P2;durP2;ratioP2
26824;SDS011;14402;48.178;11.566;2023-03-01T00:00:17;15.4;;;13.8;;
26824;SDS011;14402;48.178;11.566;2023-03-01T00:00:47;15.4;;;13.8;;
26824;SDS011;14402;48.178;11.566;2023-03-01T00:01:18;15.2;;;13.6;;
26824;SDS011;14402;48.178;11.566;2023-03-01T00:01:47;15.1;;;13.5;;
26824;SDS011;14402;48.178;11.566;2023-03-01T00:02:17;15.1;;;13.5;;
26824;SDS011;14402;48.178;11.566;2023-03-01T00:02:47;15.1;;;13.5;;
26824;SDS011;14402;48.178;11.566;2023-03-01T00:03:18;15.5;;;13.9;;
26824;SDS011;14402;48.178;11.566;2023-03-01T00:03:48;15.9;;;14.4;;
26824;SDS011;14402;48.178;11.566;2023-03-01T00:04:18;15.9;;;14.4;;
26824;SDS011;14402;48.178;11.566;2023-03-01T00:04:48;15.9;;;14.4;;
26824;SDS011;14402;48.178;11.566;2023-03-01T00:05:18;15.7;;;14.1;;
26824;SDS011;14402;48.178;11.566;2023-03-01T00:05:48;15.5;;;13.9;;
26824;SDS011;14402;48.178;11.566;2023-03-01T00:06:18;15.5;;;13.9;;
26824;SDS011;14402;48.178;11.566;2023-03-01T00:06:48;15.5;;;13.9;;
26824;SDS011;14402;48.178;11.566;2023-03-01T00:07:18;15.4;;;13.6;;
26824;SDS011;14402;48.178;11.566;2023-03-01T00:07:49;15.2;;;13.4;;
26824;SDS011;14402;48.178;11.566;2023-03-01T00:08:18;15.2;;;13.4;;
26824;SDS011;14402;48.178;11.566;2023-03-01T00:08:48;15.2;;;13.4;;
26824;SDS011;14402;48.178;11.566;2023-03-01T00:09:18;15.5;;;13.8;;
26824;SDS011;14402;48.178;11.566;2023-03-01T00:09:49;15.8;;;14.2;;
26824;SDS011;14402;48.178;11.566;2023-03-01T00:10:19;15.8;;;14.2;;
26824;SDS011;14402;48.178;11.566;2023-03-01T00:10:49;15.6;;;14.0;;
26824;SDS011;14402;48.178;11.566;2023-03-01T00:11:19;15.5;;;13.9;;
26824;SDS011;14402;48.178;11.566;2023-03-01T00:11:49;15.5;;;13.9;;
26824;SDS011;14402;48.178;11.566;2023-03-01T00:12:19;15.5;;;13.9;;
26824;SDS011;14402;48.178;11.566;2023-03-01T00:12:49;15.5;;;13.9;;
26824;SDS011;14402;48.178;11.566;2023-03-01T00:13:19;15.5;;;13.9;;
26824;SDS011;14402;48.178;11.566;2023-03-01T00:13:51;15.5;;;13.9;;
26824;SDS011;14402;48.178;11.566;2023-03-01T00:14:19;15.5;;;13.9;;
26824;SDS011;14402;48.178;11.566;2023-03-01T00:14:49;15.7;;;14.1;;
26824;SDS011;14402;48.178;11.566;2023-03-01T00:15:20;15.9;;;14.3;;
26824;SDS011;14402;48.178;11.566;2023-03-01T00:15:50;15.9;;;14.3;;
26824;SDS011;14402;48.178;11.566;2023-03-01T00:16:21;15.9;;;14.3;;
26824;SDS011;14402;48.178;11.566;2023-03-01T00:16:50;15.7;;;14.1;;
26824;SDS011;14402;48.178;11.566;2023-03-01T00:17:21;15.5;;;13.9;;
26824;SDS011;14402;48.178;11.566;2023-03-01T00:17:50;15.5;;;13.9;;
26824;SDS011;14402;48.178;11.566;2023-03-01T00:18:20;15.5;;;13.9;;
26824;SDS011;14402;48.178;11.566;2023-03-01T00:18:50;15.4;;;13.9;;
26824;SDS011;14402;48.178;11.566;2023-03-01T00:19:20;15.4;;;13.8;;
26824;SDS011;14402;48.178;11.566;2023-03-01T00:19:50;15.4;;;13.8;;
26824;SDS011;14402;48.178;11.566;2023-03-01T00:20:20;15.4;;;13.8;;
26824;SDS011;14402;48.178;11.566;2023-03-01T00:20:50;15.5;;;14.0;;
26824;SDS011;14402;48.178;11.566;2023-03-01T00:21:21;15.6;;;14.1;;
26824;SDS011;14402;48.178;11.566;2023-03-01T00:21:51;15.6;;;14.1;;
26824;SDS011;14402;48.178;11.566;2023-03-01T00:22:21;15.6;;;14.1;;
26824;SDS011;14402;48.178;11.566;2023-03-01T00:22:51;16.0;;;14.4;;
26824;SDS011;14402;48.178;11.566;2023-03-01T00:23:21;16.5;;;14.6;;
26824;SDS011;14402;48.178;11.566;2023-03-01T00:23:51;16.5;;;14.6;;
26824;SDS011;14402;48.178;11.566;2023-03-01T00:24:21;16.5;;;14.6;;
26824;SDS011;14402;48.178;11.566;2023-03-01T00:24:51;16.1;;;14.3;;
26824;SDS011;14402;48.178;11.566;2023-03-01T00:25:21;15.7;;;14.0;;
26824;SDS011;14402;48.178;11.566;2023-03-01T00:25:51;15.7;;;14.0;;
26824;SDS011;14402;48.178;11.566;2023-03-01T00:26:22;15.7;;;14.0;;
26824;SDS011;14402;48.178;11.566;2023-03-01T00:26:52;15.3;;;13.7;;
26824;SDS011;14402;48.178;11.566;2023-03-01T00:27:22;14.9;;;13.4;;
26824;SDS011;14402;48.178;11.566;2023-03-01T00:27:52;14.9;;;13.4;;
26824;SDS011;14402;48.178;11.566;2023-03-01T00:28:22;14.9;;;13.4;;
26824;SDS011;14402;48.178;11.566;2023-03-01T00:28:52;15.1;;;13.5;;
26824;SDS011;14402;48.178;11.566;2023-03-01T00:29:22;15.3;;;13.7;;
26824;SDS011;14402;48.178;11.566;2023-03-01T00:29:52;15.3;;;13.7;;
26824;SDS011;14402;48.178;11.566;2023-03-01T00:30:22;15.3;;;13.7;;
26824;SDS011;14402;48.178;11.566;2023-03-01T00:30:52;15.1;;;13.6;;
26824;SDS011;14402;48.178;11.566;2023-03-01T00:31:23;15.0;;;13.5;;
26824;SDS011;14402;48.178;11.566;2023-03-01T00:31:52;15.0;;;13.5;;
26824;SDS011;14402;48.178;11.566;2023-03-01T00:32:23;15.0;;;13.5;;
26824;SDS011;14402;48.178;11.566;2023-03-01T00:32:52;15.4;;;13.9;;
26824;SDS011;14402;48.178;11.566;2023-03-01T00:33:23;15.9;;;14.2;;
26824;SDS011;14402;48.178;11.566;2023-03-01T00:33:53;15.9;;;14.2;;
26824;SDS011;14402;48.178;11.566;2023-03-01T00:34:23;15.9;;;14.2;;
26824;SDS011;14402;48.178;11.566;2023-03-01T00:34:53;15.6;;;14.0;;
26824;SDS011;14402;48.178;11.566;2023-03-01T00:35:23;15.4;;;13.8;;
26824;SDS011;14402;48.178;11.566;2023-03-01T00:35:53;15.4;;;13.8;;
26824;SDS011;14402;48.178;11.566;2023-03-01T00:36:24;15.4;;;13.8;;
26824;SDS011;14402;48.178;11.566;2023-03-01T00:36:53;15.9;;;14.1;;
26824;SDS011;14402;48.178;11.566;2023-03-01T00:37:23;16.5;;;14.4;;
26824;SDS011;14402;48.178;11.566;2023-03-01T00:37:53;16.5;;;14.4;;
26824;SDS011;14402;48.178;11.566;2023-03-01T00:38:23;16.5;;;14.4;;
26824;SDS011;14402;48.178;11.566;2023-03-01T00:38:54;16.4;;;14.2;;
26824;SDS011;14402;48.178;11.566;2023-03-01T00:39:24;16.2;;;14.0;;
26824;SDS011;14402;48.178;11.566;2023-03-01T00:39:54;16.2;;;14.0;;
26824;SDS011;14402;48.178;11.566;2023-03-01T00:40:24;16.2;;;14.0;;
26824;SDS011;14402;48.178;11.566;2023-03-01T00:40:54;16.2;;;14.2;;
26824;SDS011;14402;48.178;11.566;2023-03-01T00:41:24;16.1;;;14.4;;
26824;SDS011;14402;48.178;11.566;2023-03-01T00:41:54;16.1;;;14.4;;
26824;SDS011;14402;48.178;11.566;2023-03-01T00:42:24;16.1;;;14.4;;
26824;SDS011;14402;48.178;11.566;2023-03-01T00:42:54;15.7;;;14.1;;
26824;SDS011;14402;48.178;11.566;2023-03-01T00:43:24;15.3;;;13.8;;
26824;SDS011;14402;48.178;11.566;2023-03-01T00:43:54;15.3;;;13.8;;
26824;SDS011;14402;48.178;11.566;2023-03-01T00:44:24;15.3;;;13.8;;
26824;SDS011;14402;48.178;11.566;2023-03-01T00:44:54;15.8;;;14.1;;
26824;SDS011;14402;48.178;11.566;2023-03-01T00:45:25;16.2;;;14.5;;
26824;SDS011;14402;48.178;11.566;2023-03-01T00:45:55;16.2;;;14.5;;
26824;SDS011;14402;48.178;11.566;2023-03-01T00:46:25;16.2;;;14.5;;
26824;SDS011;14402;48.178;11.566;2023-03-01T00:46:55;15.9;;;14.3;;
26824;SDS011;14402;48.178;11.566;2023-03-01T00:47:25;15.6;;;14.1;;
26824;SDS011;14402;48.178;11.566;2023-03-01T00:47:55;15.6;;;14.1;;
26824;SDS011;14402;48.178;11.566;2023-03-01T00:48:25;15.6;;;14.1;;
26824;SDS011;14402;48.178;11.566;2023-03-01T00:48:55;15.9;;;14.1;;
26824;SDS011;14402;48.178;11.566;2023-03-01T00:49:25;16.1;;;14.0;;
26824;SDS011;14402;48.178;11.566;2023-03-01T00:49:55;16.1;;;14.0;;
26824;SDS011;14402;48.178;11.566;2023-03-01T00:50:26;16.1;;;14.0;;
26824;SDS011;14402;48.178;11.566;2023-03-01T00:50:55;15.7;;;13.9;;
26824;SDS011;14402;48.178;11.566;2023-03-01T00:51:27;15.3;;;13.7;;
26824;SDS011;14402;48.178;11.566;2023-03-01T00:51:56;15.3;;;13.7;;
26824;SDS011;14402;48.178;11.566;2023-03-01T00:52:26;15.3;;;13.7;;
26824;SDS011;14402;48.178;11.566;2023-03-01T00:52:56;15.5;;;13.9;;
26824;SDS011;14402;48.178;11.566;2023-03-01T00:53:26;15.7;;;14.1;;
26824;SDS011;14402;48.178;11.566;2023-03-01T00:53:57;15.7;;;14.1;;
26824;SDS011;14402;48.178;11.566;2023-03-01T00:54:26;15.7;;;14.1;;
26824;SDS011;14402;48.178;11.566;2023-03-01T00:54:56;16.0;;;14.1;;
26824;SDS011;14402;48.178;11.566;2023-03-01T00:55:26;16.2;;;14.0;;
26824;SDS011;14402;48.178;11.566;2023-03-01T00:55:56;16.2;;;14.0;;
26824;SDS011;14402;48.178;11.566;2023-03-01T00:56:27;16.2;;;14.0;;
26824;SDS011;14402;48.178;11.566;2023-03-01T00:56:56;16.0;;;14.0;;
26824;SDS011;14402;48.178;11.566;2023-03-01T00:57:26;15.7;;;14.0;;
26824;SDS011;14402;48.178;11.566;2023-03-01T00:57:57;15.7;;;14.0;;
26824;SDS011;14402;48.178;11.566;2023-03-01T00:58:27;15.7;;;14.0;;
26824;SDS011;14402;48.178;11.566;2023-03-01T00:58:57;15.4;;;13.8;;
26824;SDS011;14402;48.178;11.566;2023-03-01T00:59:27;15.1;;;13.5;;
26824;SDS011;14402;48.178;11.566;2023-03-01T00:59:57;15.1;;;13.5;;
26824;SDS011;14402;48.178;11.566;2023-03-01T01:00:27;15.1;;;13.5;;
26824;SDS011;14402;48.178;11.566;2023-03-01T01:00:57;15.1;;;13.5;;
26824;SDS011;14402;48.178;11.566;2023-03-01T01:01:29;15.0;;;13.5;;
26824;SDS011;14402;48.178;11.566;2023-03-01T01:01:57;15.0;;;13.5;;
26824;SDS011;14402;48.178;11.566;2023-03-01T01:02:27;15.0;;;13.5;;
26824;SDS011;14402;48.178;11.566;2023-03-01T01:02:57;15.5;;;13.9;;
26824;SDS011;14402;48.178;11.566;2023-03-01T01:03:28;16.0;;;14.3;;
26824;SDS011;14402;48.178;11.566;2023-03-01T01:03:59;16.0;;;14.3;;
26824;SDS011;14402;48.178;11.566;2023-03-01T01:04:28;16.0;;;14.3;;
26824;SDS011;14402;48.178;11.566;2023-03-01T01:04:58;15.9;;;14.2;;
26824;SDS011;14402;48.178;11.566;2023-03-01T01:05:28;15.7;;;14.1;;
26824;SDS011;14402;48.178;11.566;2023-03-01T01:05:58;15.7;;;14.1;;
26824;SDS011;14402;48.178;11.566;2023-03-01T01:06:29;15.7;;;14.1;;
26824;SDS011;14402;48.178;11.566;2023-03-01T01:06:58;15.7;;;14.1;;
26824;SDS011;14402;48.178;11.566;2023-03-01T01:07:28;15.7;;;14.1;;
26824;SDS011;14402;48.178;11.566;2023-03-01T01:07:58;15.7;;;14.1;;
26824;SDS011;14402;48.178;11.566;2023-03-01T01:08:28;15.7;;;14.1;;
26824;SDS011;14402;48.178;11.566;2023-03-01T01:08:58;16.0;;;14.2;;
26824;SDS011;14402;48.178;11.566;2023-03-01T01:09:29;16.4;;;14.3;;
26824;SDS011;14402;48.178;11.566;2023-03-01T01:09:59;16.4;;;14.3;;
26824;SDS011;14402;48.178;11.566;2023-03-01T01:10:29;16.4;;;14.3;;
26824;SDS011;14402;48.178;11.566;2023-03-01T01:10:59;15.8;;;14.0;;
26824;SDS011;14402;48.178;11.566;2023-03-01T01:11:29;15.1;;;13.6;;
26824;SDS011;14402;48.178;11.566;2023-03-01T01:11:59;15.1;;;13.6;;
26824;SDS011;14402;48.178;11.566;2023-03-01T01:12:29;15.1;;;13.6;;
26824;SDS011;14402;48.178;11.566;2023-03-01T01:12:59;15.5;;;13.8;;
26824;SDS011;14402;48.178;11.566;2023-03-01T01:13:29;15.8;;;14.0;;
26824;SDS011;14402;48.178;11.566;2023-03-01T01:13:59;15.8;;;14.0;;
26824;SDS011;14402;48.178;11.566;2023-03-01T01:14:29;15.8;;;14.0;;
26824;SDS011;14402;48.178;11.566;2023-03-01T01:14:59;16.1;;;13.9;;
26824;SDS011;14402;48.178;11.566;2023-03-01T01:15:33;16.4;;;13.9;;
26824;SDS011;14402;48.178;11.566;2023-03-01T01:16:00;16.4;;;13.9;;
26824;SDS011;14402;48.178;11.566;2023-03-01T01:16:30;16.4;;;13.9;;
26824;SDS011;14402;48.178;11.566;2023-03-01T01:17:00;15.9;;;13.9;;
26824;SDS011;14402;48.178;11.566;2023-03-01T01:17:31;15.4;;;13.9;;
26824;SDS011;14402;48.178;11.566;2023-03-01T01:18:00;15.4;;;13.9;;
26824;SDS011;14402;48.178;11.566;2023-03-01T01:18:30;15.4;;;13.9;;
26824;SDS011;14402;48.178;11.566;2023-03-01T01:19:00;15.6;;;14.0;;
26824;SDS011;14402;48.178;11.566;2023-03-01T01:19:30;15.9;;;14.2;;
26824;SDS011;14402;48.178;11.566;2023-03-01T01:20:00;15.9;;;14.2;;
26824;SDS011;14402;48.178;11.566;2023-03-01T01:20:31;15.9;;;14.2;;
26824;SDS011;14402;48.178;11.566;2023-03-01T01:21:05;16.8;;;14.2;;
26824;SDS011;14402;48.178;11.566;2023-03-01T01:21:31;17.6;;;14.2;;
26824;SDS011;14402;48.178;11.566;2023-03-01T01:22:01;17.6;;;14.2;;
26824;SDS011;14402;48.178;11.566;2023-03-01T01:22:31;17.6;;;14.2;;
26824;SDS011;14402;48.178;11.566;2023-03-01T01:23:01;16.2;;;13.8;;
26824;SDS011;14402;48.178;11.566;2023-03-01T01:23:31;14.9;;;13.4;;
26824;SDS011;14402;48.178;11.566;2023-03-01T01:24:02;14.9;;;13.4;;
26824;SDS011;14402;48.178;11.566;2023-03-01T01:24:31;14.9;;;13.4;;
26824;SDS011;14402;48.178;11.566;2023-03-01T01:25:01;15.3;;;13.7;;
26824;SDS011;14402;48.178;11.566;2023-03-01T01:25:33;15.7;;;14.0;;
26824;SDS011;14402;48.178;11.566;2023-03-01T01:26:03;15.7;;;14.0;;
26824;SDS011;14402;48.178;11.566;2023-03-01T01:26:32;15.7;;;14.0;;
26824;SDS011;14402;48.178;11.566;2023-03-01T01:27:01;15.7;;;14.1;;
26824;SDS011;14402;48.178;11.566;2023-03-01T01:27:31;15.7;;;14.1;;
26824;SDS011;14402;48.178;11.566;2023-03-01T01:28:02;15.7;;;14.1;;
26824;SDS011;14402;48.178;11.566;2023-03-01T01:28:32;15.7;;;14.1;;
26824;SDS011;14402;48.178;11.566;2023-03-01T01:29:02;15.9;;;13.9;;
26824;SDS011;14402;48.178;11.566;2023-03-01T01:29:32;16.0;;;13.6;;
26824;SDS011;14402;48.178;11.566;2023-03-01T01:30:02;16.0;;;13.6;;
26824;SDS011;14402;48.178;11.566;2023-03-01T01:30:32;16.0;;;13.6;;
26824;SDS011;14402;48.178;11.566;2023-03-01T01:31:02;15.9;;;13.9;;
26824;SDS011;14402;48.178;11.566;2023-03-01T01:31:33;15.7;;;14.1;;
26824;SDS011;14402;48.178;11.566;2023-03-01T01:32:02;15.7;;;14.1;;
26824;SDS011;14402;48.178;11.566;2023-03-01T01:32:32;15.7;;;14.1;;
26824;SDS011;14402;48.178;11.566;2023-03-01T01:33:02;15.6;;;14.0;;
26824;SDS011;14402;48.178;11.566;2023-03-01T01:33:33;15.5;;;13.9;;
26824;SDS011;14402;48.178;11.566;2023-03-01T01:34:04;15.5;;;13.9;;
26824;SDS011;14402;48.178;11.566;2023-03-01T01:34:33;15.5;;;13.9;;
26824;SDS011;14402;48.178;11.566;2023-03-01T01:35:03;15.6;;;13.9;;
26824;SDS011;14402;48.178;11.566;2023-03-01T01:35:33;15.6;;;13.9;;
26824;SDS011;14402;48.178;11.566;2023-03-01T01:36:03;15.6;;;13.9;;
26824;SDS011;14402;48.178;11.566;2023-03-01T01:36:34;15.6;;;13.9;;
26824;SDS011;14402;48.178;11.566;2023-03-01T01:37:03;15.6;;;13.9;;
26824;SDS011;14402;48.178;11.566;2023-03-01T01:37:33;15.5;;;13.8;;
26824;SDS011;14402;48.178;11.566;2023-03-01T01:38:03;15.5;;;13.8;;
26824;SDS011;14402;48.178;11.566;2023-03-01T01:38:33;15.5;;;13.8;;
26824;SDS011;14402;48.178;11.566;2023-03-01T01:39:03;15.8;;;13.9;;
26824;SDS011;14402;48.178;11.566;2023-03-01T01:39:34;16.0;;;13.9;;
26824;SDS011;14402;48.178;11.566;2023-03-01T01:40:04;16.0;;;13.9;;
26824;SDS011;14402;48.178;11.566;2023-03-01T01:40:34;16.0;;;13.9;;
26824;SDS011;14402;48.178;11.566;2023-03-01T01:41:04;16.5;;;14.2;;
26824;SDS011;14402;48.178;11.566;2023-03-01T01:41:34;16.9;;;14.6;;
26824;SDS011;14402;48.178;11.566;2023-03-01T01:42:04;16.9;;;14.6;;
26824;SDS011;14402;48.178;11.566;2023-03-01T01:42:34;16.9;;;14.6;;
26824;SDS011;14402;48.178;11.566;2023-03-01T01:43:04;16.1;;;14.2;;
26824;SDS011;14402;48.178;11.566;2023-03-01T01:43:35;15.4;;;13.9;;
26824;SDS011;14402;48.178;11.566;2023-03-01T01:44:09;15.4;;;13.9;;
26824;SDS011;14402;48.178;11.566;2023-03-01T01:44:35;15.4;;;13.9;;
26824;SDS011;14402;48.178;11.566;2023-03-01T01:45:36;16.2;;;14.0;;
26824;SDS011;14402;48.178;11.566;2023-03-01T01:45:37;17.0;;;14.2;;
26824;SDS011;14402;48.178;11.566;2023-03-01T01:46:05;17.0;;;14.2;;
26824;SDS011;14402;48.178;11.566;2023-03-01T01:46:35;17.0;;;14.2;;
26824;SDS011;14402;48.178;11.566;2023-03-01T01:47:06;16.7;;;14.5;;
26824;SDS011;14402;48.178;11.566;2023-03-01T01:47:35;16.4;;;14.8;;
26824;SDS011;14402;48.178;11.566;2023-03-01T01:48:06;16.4;;;14.8;;
26824;SDS011;14402;48.178;11.566;2023-03-01T01:48:37;16.4;;;14.8;;
26824;SDS011;14402;48.178;11.566;2023-03-01T01:49:07;16.2;;;14.6;;
26824;SDS011;14402;48.178;11.566;2023-03-01T01:49:37;16.1;;;14.4;;
26824;SDS011;14402;48.178;11.566;2023-03-01T01:50:08;16.1;;;14.4;;
26824;SDS011;14402;48.178;11.566;2023-03-01T01:50:36;16.1;;;14.4;;
26824;SDS011;14402;48.178;11.566;2023-03-01T01:51:06;15.9;;;14.2;;
26824;SDS011;14402;48.178;11.566;2023-03-01T01:51:37;15.7;;;14.1;;
26824;SDS011;14402;48.178;11.566;2023-03-01T01:52:07;15.7;;;14.1;;
26824;SDS011;14402;48.178;11.566;2023-03-01T01:52:36;15.7;;;14.1;;
26824;SDS011;14402;48.178;11.566;2023-03-01T01:53:07;15.9;;;14.2;;
26824;SDS011;14402;48.178;11.566;2023-03-01T01:53:36;16.0;;;14.4;;
26824;SDS011;14402;48.178;11.566;2023-03-01T01:54:07;16.0;;;14.4;;
26824;SDS011;14402;48.178;11.566;2023-03-01T01:54:38;16.0;;;14.4;;
26824;SDS011;14402;48.178;11.566;2023-03-01T01:55:07;16.0;;;14.4;;
26824;SDS011;14402;48.178;11.566;2023-03-01T01:55:36;16.0;;;14.3;;
26824;SDS011;14402;48.178;11.566;2023-03-01T01:56:07;16.0;;;14.3;;
26824;SDS011;14402;48.178;11.566;2023-03-01T01:56:37;16.0;;;14.3;;
26824;SDS011;14402;48.178;11.566;2023-03-01T01:57:07;16.0;;;14.4;;
26824;SDS011;14402;48.178;11.566;2023-03-01T01:57:37;16.0;;;14.4;;
26824;SDS011;14402;48.178;11.566;2023-03-01T01:58:07;16.0;;;14.4;;
26824;SDS011;14402;48.178;11.566;2023-03-01T01:58:37;16.0;;;14.4;;
26824;SDS011;14402;48.178;11.566;2023-03-01T01:59:07;16.0;;;14.2;;
26824;SDS011;14402;48.178;11.566;2023-03-01T01:59:37;16.0;;;14.0;;
26824;SDS011;14402;48.178;11.566;2023-03-01T02:00:09;16.0;;;14.0;;
26824;SDS011;14402;48.178;11.566;2023-03-01T02:00:38;16.0;;;14.0;;
26824;SDS011;14402;48.178;11.566;2023-03-01T02:01:07;16.2;;;14.4;;
26824;SDS011;14402;48.178;11.566;2023-03-01T02:01:37;16.4;;;14.7;;
26824;SDS011;14402;48.178;11.566;2023-03-01T02:02:07;16.4;;;14.7;;
26824;SDS011;14402;48.178;11.566;2023-03-01T02:02:38;16.4;;;14.7;;
26824;SDS011;14402;48.178;11.566;2023-03-01T02:03:08;16.0;;;14.4;;
26824;SDS011;14402;48.178;11.566;2023-03-01T02:03:38;15.7;;;14.1;;
26824;SDS011;14402;48.178;11.566;2023-03-01T02:04:08;15.7;;;14.1;;
26824;SDS011;14402;48.178;11.566;2023-03-01T02:04:38;15.7;;;14.1;;
26824;SDS011;14402;48.178;11.566;2023-03-01T02:05:09;16.6;;;14.0;;
26824;SDS011;14402;48.178;11.566;2023-03-01T02:05:39;17.5;;;13.8;;
26824;SDS011;14402;48.178;11.566;2023-03-01T02:06:12;17.5;;;13.8;;
26824;SDS011;14402;48.178;11.566;2023-03-01T02:06:39;17.5;;;13.8;;
26824;SDS011;14402;48.178;11.566;2023-03-01T02:07:10;16.7;;;14.0;;
26824;SDS011;14402;48.178;11.566;2023-03-01T02:07:38;15.9;;;14.2;;
26824;SDS011;14402;48.178;11.566;2023-03-01T02:08:09;15.9;;;14.2;;
26824;SDS011;14402;48.178;11.566;2023-03-01T02:08:40;15.9;;;14.2;;
26824;SDS011;14402;48.178;11.566;2023-03-01T02:09:10;15.6;;;14.0;;
26824;SDS011;14402;48.178;11.566;2023-03-01T02:09:39;15.4;;;13.8;;
26824;SDS011;14402;48.178;11.566;2023-03-01T02:10:09;15.4;;;13.8;;
26824;SDS011;14402;48.178;11.566;2023-03-01T02:10:39;15.4;;;13.8;;
26824;SDS011;14402;48.178;11.566;2023-03-01T02:11:09;15.7;;;14.1;;
26824;SDS011;14402;48.178;11.566;2023-03-01T02:11:39;16.0;;;14.3;;
26824;SDS011;14402;48.178;11.566;2023-03-01T02:12:09;16.0;;;14.3;;
26824;SDS011;14402;48.178;11.566;2023-03-01T02:12:39;16.0;;;14.3;;
26824;SDS011;14402;48.178;11.566;2023-03-01T02:13:09;16.0;;;14.4;;
26824;SDS011;14402;48.178;11.566;2023-03-01T02:13:40;16.1;;;14.4;;
26824;SDS011;14402;48.178;11.566;2023-03-01T02:14:09;16.1;;;14.4;;
26824;SDS011;14402;48.178;11.566;2023-03-01T02:14:40;16.1;;;14.4;;
26824;SDS011;14402;48.178;11.566;2023-03-01T02:15:10;15.6;;;13.9;;
26824;SDS011;14402;48.178;11.566;2023-03-01T02:15:40;15.1;;;13.5;;
26824;SDS011;14402;48.178;11.566;2023-03-01T02:16:10;15.1;;;13.5;;
26824;SDS011;14402;48.178;11.566;2023-03-01T02:16:40;15.1;;;13.5;;
26824;SDS011;14402;48.178;11.566;2023-03-01T02:17:11;15.2;;;13.6;;
26824;SDS011;14402;48.178;11.566;2023-03-01T02:17:40;15.3;;;13.8;;
26824;SDS011;14402;48.178;11.566;2023-03-01T02:18:11;15.3;;;13.8;;
26824;SDS011;14402;48.178;11.566;2023-03-01T02:18:41;15.3;;;13.8;;
26824;SDS011;14402;48.178;11.566;2023-03-01T02:19:11;15.2;;;13.7;;
26824;SDS011;14402;48.178;11.566;2023-03-01T02:19:44;15.2;;;13.6;;
26824;SDS011;14402;48.178;11.566;2023-03-01T02:20:12;15.2;;;13.6;;
26824;SDS011;14402;48.178;11.566;2023-03-01T02:20:43;15.2;;;13.6;;
26824;SDS011;14402;48.178;11.566;2023-03-01T02:21:16;15.1;;;13.6;;
26824;SDS011;14402;48.178;11.566;2023-03-01T02:21:42;15.1;;;13.5;;
26824;SDS011;14402;48.178;11.566;2023-03-01T02:22:13;15.1;;;13.5;;
26824;SDS011;14402;48.178;11.566;2023-03-01T02:22:41;15.1;;;13.5;;
26824;SDS011;14402;48.178;11.566;2023-03-01T02:23:11;15.0;;;13.4;;
26824;SDS011;14402;48.178;11.566;2023-03-01T02:23:41;14.8;;;13.3;;
26824;SDS011;14402;48.178;11.566;2023-03-01T02:24:14;14.8;;;13.3;;
26824;SDS011;14402;48.178;11.566;2023-03-01T02:24:44;14.8;;;13.3;;
26824;SDS011;14402;48.178;11.566;2023-03-01T02:25:43;14.9;;;13.1;;
26824;SDS011;14402;48.178;11.566;2023-03-01T02:26:14;14.9;;;13.1;;
26824;SDS011;14402;48.178;11.566;2023-03-01T02:26:42;14.9;;;13.1;;
26824;SDS011;14402;48.178;11.566;2023-03-01T02:27:11;15.1;;;13.5;;
26824;SDS011;14402;48.178;11.566;2023-03-01T02:27:44;15.4;;;13.8;;
26824;SDS011;14402;48.178;11.566;2023-03-01T02:28:19;15.4;;;13.8;;
26824;SDS011;14402;48.178;11.566;2023-03-01T02:28:42;15.4;;;13.8;;
26824;SDS011;14402;48.178;11.566;2023-03-01T02:29:12;15.4;;;13.8;;
26824;SDS011;14402;48.178;11.566;2023-03-01T02:29:42;15.3;;;13.7;;
26824;SDS011;14402;48.178;11.566;2023-03-01T02:30:12;15.3;;;13.7;;
26824;SDS011;14402;48.178;11.566;2023-03-01T02:30:43;15.3;;;13.7;;
26824;SDS011;14402;48.178;11.566;2023-03-01T02:31:41;15.4;;;13.8;;
26824;SDS011;14402;48.178;11.566;2023-03-01T02:31:42;15.4;;;13.9;;
26824;SDS011;14402;48.178;11.566;2023-03-01T02:32:12;15.4;;;13.9;;
26824;SDS011;14402;48.178;11.566;2023-03-01T02:32:42;15.4;;;13.9;;
26824;SDS011;14402;48.178;11.566;2023-03-01T02:33:12;15.2;;;13.8;;
26824;SDS011;14402;48.178;11.566;2023-03-01T02:33:43;15.1;;;13.6;;
26824;SDS011;14402;48.178;11.566;2023-03-01T02:34:13;15.1;;;13.6;;
26824;SDS011;14402;48.178;11.566;2023-03-01T02:34:43;15.1;;;13.6;;
26824;SDS011;14402;48.178;11.566;2023-03-01T02:35:13;15.7;;;13.8;;
26824;SDS011;14402;48.178;11.566;2023-03-01T02:35:43;16.2;;;13.9;;
26824;SDS011;14402;48.178;11.566;2023-03-01T02:36:14;16.2;;;13.9;;
26824;SDS011;14402;48.178;11.566;2023-03-01T02:36:44;16.2;;;13.9;;
26824;SDS011;14402;48.178;11.566;2023-03-01T02:37:13;15.4;;;13.4;;
26824;SDS011;14402;48.178;11.566;2023-03-01T02:37:43;14.5;;;13.0;;
26824;SDS011;14402;48.178;11.566;2023-03-01T02:38:13;14.5;;;13.0;;
26824;SDS011;14402;48.178;11.566;2023-03-01T02:38:43;14.5;;;13.0;;
26824;SDS011;14402;48.178;11.566;2023-03-01T02:39:15;14.8;;;13.3;;
26824;SDS011;14402;48.178;11.566;2023-03-01T02:39:44;15.1;;;13.6;;
26824;SDS011;14402;48.178;11.566;2023-03-01T02:40:15;15.1;;;13.6;;
26824;SDS011;14402;48.178;11.566;2023-03-01T02:40:44;15.1;;;13.6;;
26824;SDS011;14402;48.178;11.566;2023-03-01T02:41:15;15.1;;;13.6;;
26824;SDS011;14402;48.178;11.566;2023-03-01T02:41:46;15.1;;;13.6;;
26824;SDS011;14402;48.178;11.566;2023-03-01T02:42:14;15.1;;;13.6;;
26824;SDS011;14402;48.178;11.566;2023-03-01T02:42:45;15.1;;;13.6;;
26824;SDS011;14402;48.178;11.566;2023-03-01T02:43:14;14.8;;;13.4;;
26824;SDS011;14402;48.178;11.566;2023-03-01T02:43:44;14.5;;;13.1;;
26824;SDS011;14402;48.178;11.566;2023-03-01T02:44:14;14.5;;;13.1;;
26824;SDS011;14402;48.178;11.566;2023-03-01T02:44:44;14.5;;;13.1;;
26824;SDS011;14402;48.178;11.566;2023-03-01T02:45:14;14.6;;;13.1;;
26824;SDS011;14402;48.178;11.566;2023-03-01T02:45:47;14.6;;;13.2;;
26824;SDS011;14402;48.178;11.566;2023-03-01T02:46:15;14.6;;;13.2;;
26824;SDS011;14402;48.178;11.566;2023-03-01T02:46:46;14.6;;;13.2;;
26824;SDS011;14402;48.178;11.566;2023-03-01T02:47:15;14.5;;;13.0;;
26824;SDS011;14402;48.178;11.566;2023-03-01T02:47:45;14.3;;;12.9;;
26824;SDS011;14402;48.178;11.566;2023-03-01T02:48:15;14.3;;;12.9;;
26824;SDS011;14402;48.178;11.566;2023-03-01T02:48:46;14.3;;;12.9;;
26824;SDS011;14402;48.178;11.566;2023-03-01T02:49:16;14.8;;;13.4;;
26824;SDS011;14402;48.178;11.566;2023-03-01T02:49:45;15.3;;;13.8;;
26824;SDS011;14402;48.178;11.566;2023-03-01T02:50:19;15.3;;;13.8;;
26824;SDS011;14402;48.178;11.566;2023-03-01T02:50:51;15.3;;;13.8;;
26824;SDS011;14402;48.178;11.566;2023-03-01T02:51:18;15.6;;;14.0;;
26824;SDS011;14402;48.178;11.566;2023-03-01T02:51:47;15.8;;;14.2;;
26824;SDS011;14402;48.178;11.566;2023-03-01T02:52:21;15.8;;;14.2;;
26824;SDS011;14402;48.178;11.566;2023-03-01T02:52:46;15.8;;;14.2;;
26824;SDS011;14402;48.178;11.566;2023-03-01T02:53:16;15.2;;;13.7;;
26824;SDS011;14402;48.178;11.566;2023-03-01T02:53:48;14.6;;;13.2;;
26824;SDS011;14402;48.178;11.566;2023-03-01T02:54:18;14.6;;;13.2;;
26824;SDS011;14402;48.178;11.566;2023-03-01T02:54:47;14.6;;;13.2;;
26824;SDS011;14402;48.178;11.566;2023-03-01T02:55:16;14.9;;;13.2;;
26824;SDS011;14402;48.178;11.566;2023-03-01T02:55:46;15.2;;;13.3;;
26824;SDS011;14402;48.178;11.566;2023-03-01T02:56:16;15.2;;;13.3;;
26824;SDS011;14402;48.178;11.566;2023-03-01T02:56:48;15.2;;;13.3;;
26824;SDS011;14402;48.178;11.566;2023-03-01T02:57:16;15.2;;;13.5;;
26824;SDS011;14402;48.178;11.566;2023-03-01T02:57:46;15.2;;;13.7;;
26824;SDS011;14402;48.178;11.566;2023-03-01T02:58:16;15.2;;;13.7;;
26824;SDS011;14402;48.178;11.566;2023-03-01T02:58:47;15.2;;;13.7;;